sensor_id;sensor_type;location;lat;lon;timestamp;pressure;altitude;pressure_sealevel;temperature;humidity
78990;BME280;68390;52.130;21.218;2023-07-31T00:00:30;99900.84;;;16.83;90.28
78990;BME280;68390;52.130;21.218;2023-07-31T00:02:56;99892.75;;;16.82;90.24
78990;BME280;68390;52.130;21.218;2023-07-31T00:05:21;99897.47;;;16.81;89.85
78990;BME280;68390;52.130;21.218;2023-07-31T00:07:47;99904.31;;;16.79;90.11
78990;BME280;68390;52.130;21.218;2023-07-31T00:10:12;99907.28;;;16.77;89.63
78990;BME280;68390;52.130;21.218;2023-07-31T00:12:45;99900.03;;;16.76;89.49
78990;BME280;68390;52.130;21.218;2023-07-31T00:15:13;99895.56;;;16.75;89.13
78990;BME280;68390;52.130;21.218;2023-07-31T00:17:38;99893.88;;;16.74;88.83
78990;BME280;68390;52.130;21.218;2023-07-31T00:20:04;99901.34;;;16.74;88.45
78990;BME280;68390;52.130;21.218;2023-07-31T00:22:30;99904.09;;;16.74;88.33
78990;BME280;68390;52.130;21.218;2023-07-31T00:24:56;99905.16;;;16.73;88.34
78990;BME280;68390;52.130;21.218;2023-07-31T00:27:21;99910.72;;;16.73;88.34
78990;BME280;68390;52.130;21.218;2023-07-31T00:29:47;99912.88;;;16.71;88.50
78990;BME280;68390;52.130;21.218;2023-07-31T00:32:12;99910.56;;;16.68;88.36
78990;BME280;68390;52.130;21.218;2023-07-31T00:34:37;99908.44;;;16.63;88.57
78990;BME280;68390;52.130;21.218;2023-07-31T00:37:03;99909.28;;;16.64;88.67
78990;BME280;68390;52.130;21.218;2023-07-31T00:39:30;99911.41;;;16.62;88.36
78990;BME280;68390;52.130;21.218;2023-07-31T00:41:56;99909.06;;;16.59;88.58
78990;BME280;68390;52.130;21.218;2023-07-31T00:44:21;99912.06;;;16.57;88.29
78990;BME280;68390;52.130;21.218;2023-07-31T00:46:48;99908.66;;;16.55;88.37
78990;BME280;68390;52.130;21.218;2023-07-31T00:49:13;99900.19;;;16.50;88.42
78990;BME280;68390;52.130;21.218;2023-07-31T00:51:39;99906.16;;;16.47;88.82
78990;BME280;68390;52.130;21.218;2023-07-31T00:54:05;99909.78;;;16.41;89.93
78990;BME280;68390;52.130;21.218;2023-07-31T00:56:31;99912.38;;;16.36;90.52
78990;BME280;68390;52.130;21.218;2023-07-31T00:58:57;99907.53;;;16.25;90.93
78990;BME280;68390;52.130;21.218;2023-07-31T01:01:22;99908.81;;;16.22;90.54
78990;BME280;68390;52.130;21.218;2023-07-31T01:03:49;99910.53;;;16.17;91.03
78990;BME280;68390;52.130;21.218;2023-07-31T01:09:02;99908.66;;;16.04;91.37
78990;BME280;68390;52.130;21.218;2023-07-31T01:11:31;99912.31;;;15.98;91.03
78990;BME280;68390;52.130;21.218;2023-07-31T01:13:58;99908.47;;;15.92;91.56
78990;BME280;68390;52.130;21.218;2023-07-31T01:16:25;99900.84;;;15.88;91.80
78990;BME280;68390;52.130;21.218;2023-07-31T01:18:50;99912.13;;;15.86;91.13
78990;BME280;68390;52.130;21.218;2023-07-31T01:26:47;99919.56;;;15.79;91.58
78990;BME280;68390;52.130;21.218;2023-07-31T01:29:23;99921.72;;;15.77;91.99
78990;BME280;68390;52.130;21.218;2023-07-31T01:31:53;99920.03;;;15.76;92.06
78990;BME280;68390;52.130;21.218;2023-07-31T01:34:21;99921.31;;;15.73;92.78
78990;BME280;68390;52.130;21.218;2023-07-31T01:36:47;99912.16;;;15.66;93.25
78990;BME280;68390;52.130;21.218;2023-07-31T01:39:13;99920.88;;;15.70;92.48
78990;BME280;68390;52.130;21.218;2023-07-31T01:41:38;99926.00;;;15.66;92.63
78990;BME280;68390;52.130;21.218;2023-07-31T01:44:04;99918.78;;;15.65;93.27
78990;BME280;68390;52.130;21.218;2023-07-31T01:46:29;99928.78;;;15.66;93.00
78990;BME280;68390;52.130;21.218;2023-07-31T01:48:55;99923.44;;;15.65;93.22
78990;BME280;68390;52.130;21.218;2023-07-31T01:51:20;99930.06;;;15.64;93.32
78990;BME280;68390;52.130;21.218;2023-07-31T01:53:45;99926.63;;;15.62;93.57
78990;BME280;68390;52.130;21.218;2023-07-31T01:56:11;99928.13;;;15.58;93.44
78990;BME280;68390;52.130;21.218;2023-07-31T01:58:36;99922.38;;;15.53;93.15
78990;BME280;68390;52.130;21.218;2023-07-31T02:01:02;99923.00;;;15.48;94.03
78990;BME280;68390;52.130;21.218;2023-07-31T02:03:27;99926.22;;;15.45;94.52
78990;BME280;68390;52.130;21.218;2023-07-31T02:05:54;99929.59;;;15.40;94.07
78990;BME280;68390;52.130;21.218;2023-07-31T02:08:19;99934.94;;;15.35;95.17
78990;BME280;68390;52.130;21.218;2023-07-31T02:10:44;99935.56;;;15.31;94.75
78990;BME280;68390;52.130;21.218;2023-07-31T02:13:10;99930.66;;;15.26;95.06
78990;BME280;68390;52.130;21.218;2023-07-31T02:15:36;99930.03;;;15.24;94.10
78990;BME280;68390;52.130;21.218;2023-07-31T02:18:02;99930.47;;;15.21;95.49
78990;BME280;68390;52.130;21.218;2023-07-31T02:20:27;99942.78;;;15.19;94.82
78990;BME280;68390;52.130;21.218;2023-07-31T02:22:52;99936.59;;;15.17;94.61
78990;BME280;68390;52.130;21.218;2023-07-31T02:25:18;99941.53;;;15.15;95.17
78990;BME280;68390;52.130;21.218;2023-07-31T02:27:43;99946.81;;;15.10;96.29
78990;BME280;68390;52.130;21.218;2023-07-31T02:30:09;99939.19;;;15.05;96.15
78990;BME280;68390;52.130;21.218;2023-07-31T02:32:34;99936.81;;;15.02;96.30
78990;BME280;68390;52.130;21.218;2023-07-31T02:35:00;99943.19;;;14.96;96.11
78990;BME280;68390;52.130;21.218;2023-07-31T02:37:26;99948.50;;;14.91;96.03
78990;BME280;68390;52.130;21.218;2023-07-31T02:39:51;99952.31;;;14.90;95.94
78990;BME280;68390;52.130;21.218;2023-07-31T02:42:18;99949.09;;;14.86;96.03
78990;BME280;68390;52.130;21.218;2023-07-31T02:44:43;99958.69;;;14.84;95.83
78990;BME280;68390;52.130;21.218;2023-07-31T02:47:09;99960.59;;;14.83;96.91
78990;BME280;68390;52.130;21.218;2023-07-31T02:49:34;99955.94;;;14.84;96.84
78990;BME280;68390;52.130;21.218;2023-07-31T02:51:59;99950.16;;;14.85;96.93
78990;BME280;68390;52.130;21.218;2023-07-31T02:54:25;99959.13;;;14.87;96.22
78990;BME280;68390;52.130;21.218;2023-07-31T02:56:50;99961.66;;;14.89;97.22
78990;BME280;68390;52.130;21.218;2023-07-31T02:59:17;99962.31;;;14.91;96.29
78990;BME280;68390;52.130;21.218;2023-07-31T03:01:42;99950.63;;;14.95;96.72
78990;BME280;68390;52.130;21.218;2023-07-31T03:04:08;99952.13;;;14.98;97.75
78990;BME280;68390;52.130;21.218;2023-07-31T03:06:33;99942.75;;;14.99;98.03
78990;BME280;68390;52.130;21.218;2023-07-31T03:08:59;99955.78;;;15.05;97.59
78990;BME280;68390;52.130;21.218;2023-07-31T03:11:24;99955.75;;;15.12;97.92
78990;BME280;68390;52.130;21.218;2023-07-31T03:13:49;99963.22;;;15.18;97.15
78990;BME280;68390;52.130;21.218;2023-07-31T03:16:15;99962.38;;;15.24;97.33
78990;BME280;68390;52.130;21.218;2023-07-31T03:18:40;99962.38;;;15.30;97.20
78990;BME280;68390;52.130;21.218;2023-07-31T03:21:06;99963.47;;;15.36;96.64
78990;BME280;68390;52.130;21.218;2023-07-31T03:23:31;99960.03;;;15.40;96.74
78990;BME280;68390;52.130;21.218;2023-07-31T03:25:58;99948.56;;;15.43;96.56
78990;BME280;68390;52.130;21.218;2023-07-31T03:28:23;99948.97;;;15.47;97.14
78990;BME280;68390;52.130;21.218;2023-07-31T03:30:49;99967.69;;;15.52;97.17
78990;BME280;68390;52.130;21.218;2023-07-31T03:33:15;99951.56;;;15.55;96.78
78990;BME280;68390;52.130;21.218;2023-07-31T03:35:40;99962.63;;;15.62;96.67
78990;BME280;68390;52.130;21.218;2023-07-31T03:38:05;99958.38;;;15.66;96.76
78990;BME280;68390;52.130;21.218;2023-07-31T03:40:31;99965.63;;;15.67;97.24
78990;BME280;68390;52.130;21.218;2023-07-31T03:42:56;99970.69;;;15.70;96.34
78990;BME280;68390;52.130;21.218;2023-07-31T03:45:21;99968.56;;;15.72;96.79
78990;BME280;68390;52.130;21.218;2023-07-31T03:47:47;99963.69;;;15.74;95.88
78990;BME280;68390;52.130;21.218;2023-07-31T03:50:12;99969.00;;;15.75;95.91
78990;BME280;68390;52.130;21.218;2023-07-31T03:52:38;99976.88;;;15.78;95.84
78990;BME280;68390;52.130;21.218;2023-07-31T03:55:03;99971.97;;;15.81;95.75
78990;BME280;68390;52.130;21.218;2023-07-31T03:57:29;99967.94;;;15.83;95.43
78990;BME280;68390;52.130;21.218;2023-07-31T03:59:54;99971.34;;;15.85;95.29
78990;BME280;68390;52.130;21.218;2023-07-31T04:02:20;99972.59;;;15.89;95.30
78990;BME280;68390;52.130;21.218;2023-07-31T04:04:45;99981.97;;;15.95;95.29
78990;BME280;68390;52.130;21.218;2023-07-31T04:07:11;99976.41;;;16.01;95.35
78990;BME280;68390;52.130;21.218;2023-07-31T04:09:36;99989.41;;;16.07;95.58
78990;BME280;68390;52.130;21.218;2023-07-31T04:12:01;99989.59;;;16.12;95.38
78990;BME280;68390;52.130;21.218;2023-07-31T04:14:27;99984.50;;;16.16;95.88
78990;BME280;68390;52.130;21.218;2023-07-31T04:16:52;99982.97;;;16.20;95.19
78990;BME280;68390;52.130;21.218;2023-07-31T04:19:17;99985.94;;;16.25;94.61
78990;BME280;68390;52.130;21.218;2023-07-31T04:21:43;99989.16;;;16.29;94.35
78990;BME280;68390;52.130;21.218;2023-07-31T04:24:09;99988.47;;;16.33;93.61
78990;BME280;68390;52.130;21.218;2023-07-31T04:26:34;99991.69;;;16.37;92.54
78990;BME280;68390;52.130;21.218;2023-07-31T04:28:59;100003.78;;;16.42;92.52
78990;BME280;68390;52.130;21.218;2023-07-31T04:31:25;99993.13;;;16.46;92.67
78990;BME280;68390;52.130;21.218;2023-07-31T04:33:50;99998.25;;;16.49;91.87
78990;BME280;68390;52.130;21.218;2023-07-31T04:36:15;100010.38;;;16.55;90.70
78990;BME280;68390;52.130;21.218;2023-07-31T04:38:41;100004.41;;;16.58;90.69
78990;BME280;68390;52.130;21.218;2023-07-31T04:41:06;100001.19;;;16.61;90.74
78990;BME280;68390;52.130;21.218;2023-07-31T04:43:32;100010.78;;;16.65;90.06
78990;BME280;68390;52.130;21.218;2023-07-31T04:45:57;100008.44;;;16.68;89.65
78990;BME280;68390;52.130;21.218;2023-07-31T04:48:23;100012.47;;;16.72;88.18
78990;BME280;68390;52.130;21.218;2023-07-31T04:50:49;100025.91;;;16.75;88.96
78990;BME280;68390;52.130;21.218;2023-07-31T04:53:14;100014.16;;;16.80;89.07
78990;BME280;68390;52.130;21.218;2023-07-31T04:55:39;100015.63;;;16.82;87.91
78990;BME280;68390;52.130;21.218;2023-07-31T04:58:05;100011.34;;;16.86;88.13
78990;BME280;68390;52.130;21.218;2023-07-31T05:00:30;100009.19;;;16.88;88.11
78990;BME280;68390;52.130;21.218;2023-07-31T05:02:56;100016.00;;;16.93;87.53
78990;BME280;68390;52.130;21.218;2023-07-31T05:05:21;100008.53;;;16.93;86.97
78990;BME280;68390;52.130;21.218;2023-07-31T05:07:47;100014.91;;;16.94;86.19
78990;BME280;68390;52.130;21.218;2023-07-31T05:10:12;100007.22;;;16.96;86.67
78990;BME280;68390;52.130;21.218;2023-07-31T05:12:38;100005.31;;;16.96;85.63
78990;BME280;68390;52.130;21.218;2023-07-31T05:15:04;100014.69;;;17.02;86.30
78990;BME280;68390;52.130;21.218;2023-07-31T05:17:29;100011.44;;;17.05;86.08
78990;BME280;68390;52.130;21.218;2023-07-31T05:19:55;100011.00;;;17.08;85.28
78990;BME280;68390;52.130;21.218;2023-07-31T05:22:20;100006.09;;;17.10;85.46
78990;BME280;68390;52.130;21.218;2023-07-31T05:24:46;100014.59;;;17.15;85.00
78990;BME280;68390;52.130;21.218;2023-07-31T05:27:11;100009.47;;;17.18;84.84
78990;BME280;68390;52.130;21.218;2023-07-31T05:29:37;100011.56;;;17.23;84.46
78990;BME280;68390;52.130;21.218;2023-07-31T05:32:03;100015.81;;;17.25;83.79
78990;BME280;68390;52.130;21.218;2023-07-31T05:34:29;100014.72;;;17.33;86.10
78990;BME280;68390;52.130;21.218;2023-07-31T05:36:54;100017.44;;;17.40;83.55
78990;BME280;68390;52.130;21.218;2023-07-31T05:39:19;100021.84;;;17.47;84.15
78990;BME280;68390;52.130;21.218;2023-07-31T05:41:45;100019.44;;;17.57;82.96
78990;BME280;68390;52.130;21.218;2023-07-31T05:44:11;100028.84;;;17.63;82.05
78990;BME280;68390;52.130;21.218;2023-07-31T05:46:36;100029.41;;;17.72;81.76
78990;BME280;68390;52.130;21.218;2023-07-31T05:49:02;100035.09;;;17.77;82.85
78990;BME280;68390;52.130;21.218;2023-07-31T05:51:27;100035.31;;;17.82;81.07
78990;BME280;68390;52.130;21.218;2023-07-31T05:53:53;100045.34;;;17.83;81.59
78990;BME280;68390;52.130;21.218;2023-07-31T05:56:18;100045.97;;;17.85;81.14
78990;BME280;68390;52.130;21.218;2023-07-31T05:58:44;100047.19;;;17.89;81.69
78990;BME280;68390;52.130;21.218;2023-07-31T06:01:09;100043.97;;;17.92;81.63
78990;BME280;68390;52.130;21.218;2023-07-31T06:03:34;100045.69;;;17.93;80.95
78990;BME280;68390;52.130;21.218;2023-07-31T06:06:00;100052.47;;;17.97;80.67
78990;BME280;68390;52.130;21.218;2023-07-31T06:08:25;100048.16;;;18.01;80.18
78990;BME280;68390;52.130;21.218;2023-07-31T06:10:50;100062.47;;;18.05;80.50
78990;BME280;68390;52.130;21.218;2023-07-31T06:13:16;100056.59;;;18.13;78.72
78990;BME280;68390;52.130;21.218;2023-07-31T06:15:41;100056.53;;;18.19;80.10
78990;BME280;68390;52.130;21.218;2023-07-31T06:18:07;100060.34;;;18.25;80.03
78990;BME280;68390;52.130;21.218;2023-07-31T06:20:35;100062.19;;;18.31;79.28
78990;BME280;68390;52.130;21.218;2023-07-31T06:23:01;100064.44;;;18.41;78.78
78990;BME280;68390;52.130;21.218;2023-07-31T06:25:26;100067.41;;;18.46;77.72
78990;BME280;68390;52.130;21.218;2023-07-31T06:27:52;100072.03;;;18.52;78.54
78990;BME280;68390;52.130;21.218;2023-07-31T06:30:17;100063.69;;;18.52;77.22
78990;BME280;68390;52.130;21.218;2023-07-31T06:32:42;100063.69;;;18.52;76.24
78990;BME280;68390;52.130;21.218;2023-07-31T06:35:08;100067.56;;;18.51;76.96
78990;BME280;68390;52.130;21.218;2023-07-31T06:37:35;100069.72;;;18.49;76.91
78990;BME280;68390;52.130;21.218;2023-07-31T06:40:01;100064.91;;;18.38;76.54
78990;BME280;68390;52.130;21.218;2023-07-31T06:42:26;100068.94;;;18.42;76.51
78990;BME280;68390;52.130;21.218;2023-07-31T06:44:52;100070.00;;;18.41;76.71
78990;BME280;68390;52.130;21.218;2023-07-31T06:47:17;100076.44;;;18.41;77.59
78990;BME280;68390;52.130;21.218;2023-07-31T06:49:43;100080.91;;;18.42;78.29
78990;BME280;68390;52.130;21.218;2023-07-31T06:52:08;100076.88;;;18.38;76.90
78990;BME280;68390;52.130;21.218;2023-07-31T06:54:34;100082.44;;;18.38;77.27
78990;BME280;68390;52.130;21.218;2023-07-31T06:57:00;100095.66;;;18.43;78.16
78990;BME280;68390;52.130;21.218;2023-07-31T06:59:25;100083.47;;;18.44;78.23
78990;BME280;68390;52.130;21.218;2023-07-31T07:01:51;100077.59;;;18.52;79.83
78990;BME280;68390;52.130;21.218;2023-07-31T07:04:16;100077.56;;;18.58;78.19
78990;BME280;68390;52.130;21.218;2023-07-31T07:09:21;100077.03;;;18.68;78.68
78990;BME280;68390;52.130;21.218;2023-07-31T07:11:50;100078.56;;;18.64;77.29
78990;BME280;68390;52.130;21.218;2023-07-31T07:14:15;100076.41;;;18.66;77.93
78990;BME280;68390;52.130;21.218;2023-07-31T07:16:41;100079.19;;;18.66;77.92
78990;BME280;68390;52.130;21.218;2023-07-31T07:19:06;100080.09;;;18.60;78.35
78990;BME280;68390;52.130;21.218;2023-07-31T07:26:56;100086.16;;;18.75;78.98
78990;BME280;68390;52.130;21.218;2023-07-31T07:29:21;100075.97;;;18.87;76.52
78990;BME280;68390;52.130;21.218;2023-07-31T07:34:42;100091.00;;;19.16;76.30
78990;BME280;68390;52.130;21.218;2023-07-31T07:37:07;100089.66;;;19.37;74.93
78990;BME280;68390;52.130;21.218;2023-07-31T07:39:33;100078.25;;;19.57;75.54
78990;BME280;68390;52.130;21.218;2023-07-31T07:41:59;100087.97;;;19.66;74.24
78990;BME280;68390;52.130;21.218;2023-07-31T07:46:55;100098.03;;;19.67;71.51
78990;BME280;68390;52.130;21.218;2023-07-31T07:49:20;100094.97;;;19.57;70.31
78990;BME280;68390;52.130;21.218;2023-07-31T07:51:48;100094.97;;;19.57;72.35
78990;BME280;68390;52.130;21.218;2023-07-31T07:54:15;100097.19;;;19.66;71.39
78990;BME280;68390;52.130;21.218;2023-07-31T07:56:42;100087.53;;;19.81;71.98
78990;BME280;68390;52.130;21.218;2023-07-31T07:59:08;100084.28;;;19.95;72.94
78990;BME280;68390;52.130;21.218;2023-07-31T08:01:33;100084.94;;;20.09;72.19
78990;BME280;68390;52.130;21.218;2023-07-31T08:04:00;100079.59;;;20.19;71.73
78990;BME280;68390;52.130;21.218;2023-07-31T08:06:26;100086.91;;;20.32;71.15
78990;BME280;68390;52.130;21.218;2023-07-31T08:08:51;100097.22;;;20.31;68.81
78990;BME280;68390;52.130;21.218;2023-07-31T08:11:17;100087.41;;;20.40;69.58
78990;BME280;68390;52.130;21.218;2023-07-31T08:13:42;100081.09;;;20.57;71.63
78990;BME280;68390;52.130;21.218;2023-07-31T08:16:08;100080.13;;;20.63;68.21
78990;BME280;68390;52.130;21.218;2023-07-31T08:18:34;100074.78;;;20.73;69.63
78990;BME280;68390;52.130;21.218;2023-07-31T08:20:59;100071.25;;;20.77;67.72
78990;BME280;68390;52.130;21.218;2023-07-31T08:23:26;100071.84;;;20.79;66.17
78990;BME280;68390;52.130;21.218;2023-07-31T08:25:51;100072.09;;;20.78;67.45
78990;BME280;68390;52.130;21.218;2023-07-31T08:28:17;100077.56;;;20.84;68.85
78990;BME280;68390;52.130;21.218;2023-07-31T08:30:42;100076.72;;;20.84;67.55
78990;BME280;68390;52.130;21.218;2023-07-31T08:33:08;100083.16;;;20.84;67.53
78990;BME280;68390;52.130;21.218;2023-07-31T08:35:33;100092.00;;;20.93;66.01
78990;BME280;68390;52.130;21.218;2023-07-31T08:37:59;100078.63;;;20.95;64.18
78990;BME280;68390;52.130;21.218;2023-07-31T08:40:24;100071.97;;;20.96;64.66
78990;BME280;68390;52.130;21.218;2023-07-31T08:42:54;100071.56;;;21.04;63.80
78990;BME280;68390;52.130;21.218;2023-07-31T08:45:22;100080.78;;;21.16;64.95
78990;BME280;68390;52.130;21.218;2023-07-31T08:47:49;100074.06;;;21.29;64.51
78990;BME280;68390;52.130;21.218;2023-07-31T08:50:17;100071.38;;;21.34;62.80
78990;BME280;68390;52.130;21.218;2023-07-31T08:52:43;100066.00;;;21.44;62.67
78990;BME280;68390;52.130;21.218;2023-07-31T08:55:09;100070.44;;;21.57;63.16
78990;BME280;68390;52.130;21.218;2023-07-31T08:57:36;100067.84;;;21.67;61.22
78990;BME280;68390;52.130;21.218;2023-07-31T09:00:03;100065.22;;;21.77;60.88
78990;BME280;68390;52.130;21.218;2023-07-31T09:03:01;100064.38;;;21.93;59.46
78990;BME280;68390;52.130;21.218;2023-07-31T09:05:29;100068.00;;;22.06;60.54
78990;BME280;68390;52.130;21.218;2023-07-31T09:07:55;100068.09;;;22.11;57.85
78990;BME280;68390;52.130;21.218;2023-07-31T09:10:21;100067.41;;;22.20;58.27
78990;BME280;68390;52.130;21.218;2023-07-31T09:12:48;100070.38;;;22.30;57.99
78990;BME280;68390;52.130;21.218;2023-07-31T09:15:14;100065.84;;;22.46;59.84
78990;BME280;68390;52.130;21.218;2023-07-31T09:17:40;100069.16;;;22.60;55.99
78990;BME280;68390;52.130;21.218;2023-07-31T09:20:15;100065.91;;;22.68;53.84
78990;BME280;68390;52.130;21.218;2023-07-31T09:22:41;100060.47;;;22.78;54.63
78990;BME280;68390;52.130;21.218;2023-07-31T09:25:24;100068.16;;;22.88;53.94
78990;BME280;68390;52.130;21.218;2023-07-31T09:27:51;100068.03;;;22.99;53.33
78990;BME280;68390;52.130;21.218;2023-07-31T09:30:17;100057.34;;;22.96;50.25
78990;BME280;68390;52.130;21.218;2023-07-31T09:32:44;100067.00;;;23.05;50.80
78990;BME280;68390;52.130;21.218;2023-07-31T09:35:26;100056.03;;;23.26;50.18
78990;BME280;68390;52.130;21.218;2023-07-31T09:37:54;100066.56;;;23.35;51.07
78990;BME280;68390;52.130;21.218;2023-07-31T09:40:31;100064.16;;;23.49;52.56
78990;BME280;68390;52.130;21.218;2023-07-31T09:43:00;100064.63;;;23.41;52.07
78990;BME280;68390;52.130;21.218;2023-07-31T09:45:26;100064.00;;;23.34;53.94
78990;BME280;68390;52.130;21.218;2023-07-31T09:47:53;100073.69;;;23.26;53.33
78990;BME280;68390;52.130;21.218;2023-07-31T09:50:21;100070.97;;;23.31;53.11
78990;BME280;68390;52.130;21.218;2023-07-31T09:52:46;100065.63;;;23.30;50.80
78990;BME280;68390;52.130;21.218;2023-07-31T09:55:12;100062.06;;;23.13;49.96
78990;BME280;68390;52.130;21.218;2023-07-31T09:57:42;100055.72;;;22.79;51.87
78990;BME280;68390;52.130;21.218;2023-07-31T10:00:12;100067.78;;;23.01;53.41
78990;BME280;68390;52.130;21.218;2023-07-31T10:02:39;100064.06;;;23.17;49.65
78990;BME280;68390;52.130;21.218;2023-07-31T10:05:06;100058.06;;;23.30;50.68
78990;BME280;68390;52.130;21.218;2023-07-31T10:07:36;100059.28;;;23.39;52.02
78990;BME280;68390;52.130;21.218;2023-07-31T10:10:04;100060.06;;;23.57;51.27
78990;BME280;68390;52.130;21.218;2023-07-31T10:12:31;100053.25;;;23.74;51.01
78990;BME280;68390;52.130;21.218;2023-07-31T10:14:59;100057.03;;;23.85;48.41
78990;BME280;68390;52.130;21.218;2023-07-31T10:17:25;100057.38;;;23.94;50.51
78990;BME280;68390;52.130;21.218;2023-07-31T10:19:51;100062.22;;;24.03;49.42
78990;BME280;68390;52.130;21.218;2023-07-31T10:22:19;100058.34;;;24.09;48.56
78990;BME280;68390;52.130;21.218;2023-07-31T10:24:45;100056.69;;;24.08;48.62
78990;BME280;68390;52.130;21.218;2023-07-31T10:27:11;100055.06;;;24.18;49.23
78990;BME280;68390;52.130;21.218;2023-07-31T10:29:43;100043.78;;;24.12;47.31
78990;BME280;68390;52.130;21.218;2023-07-31T10:32:09;100045.53;;;24.19;48.90
78990;BME280;68390;52.130;21.218;2023-07-31T10:34:38;100039.97;;;24.24;52.13
78990;BME280;68390;52.130;21.218;2023-07-31T10:37:35;100058.09;;;24.43;45.88
78990;BME280;68390;52.130;21.218;2023-07-31T10:40:26;100049.19;;;24.56;50.30
78990;BME280;68390;52.130;21.218;2023-07-31T10:42:54;100052.59;;;24.58;48.01
78990;BME280;68390;52.130;21.218;2023-07-31T10:45:35;100045.88;;;24.64;47.15
78990;BME280;68390;52.130;21.218;2023-07-31T10:48:03;100042.16;;;24.54;46.13
78990;BME280;68390;52.130;21.218;2023-07-31T10:50:31;100042.97;;;24.49;44.74
78990;BME280;68390;52.130;21.218;2023-07-31T10:52:59;100044.69;;;24.55;46.49
78990;BME280;68390;52.130;21.218;2023-07-31T10:55:44;100044.16;;;24.58;48.60
78990;BME280;68390;52.130;21.218;2023-07-31T10:58:12;100034.91;;;24.63;47.85
78990;BME280;68390;52.130;21.218;2023-07-31T11:00:41;100035.19;;;24.61;44.15
78990;BME280;68390;52.130;21.218;2023-07-31T11:03:12;100020.88;;;24.63;48.72
78990;BME280;68390;52.130;21.218;2023-07-31T11:11:06;100029.97;;;24.85;45.45
78990;BME280;68390;52.130;21.218;2023-07-31T11:13:39;100036.69;;;24.79;45.04
78990;BME280;68390;52.130;21.218;2023-07-31T11:16:05;100030.72;;;24.65;46.08
78990;BME280;68390;52.130;21.218;2023-07-31T11:18:30;100039.13;;;24.60;47.46
78990;BME280;68390;52.130;21.218;2023-07-31T11:20:55;100043.75;;;24.39;45.63
78990;BME280;68390;52.130;21.218;2023-07-31T11:23:22;100033.09;;;24.09;44.60
78990;BME280;68390;52.130;21.218;2023-07-31T11:25:49;100039.16;;;23.96;46.99
78990;BME280;68390;52.130;21.218;2023-07-31T11:28:16;100034.69;;;24.00;48.34
78990;BME280;68390;52.130;21.218;2023-07-31T11:30:43;100038.16;;;24.07;46.43
78990;BME280;68390;52.130;21.218;2023-07-31T11:33:10;100021.34;;;24.12;47.48
78990;BME280;68390;52.130;21.218;2023-07-31T11:35:42;100028.66;;;24.13;45.08
78990;BME280;68390;52.130;21.218;2023-07-31T11:38:08;100033.00;;;23.99;45.78
78990;BME280;68390;52.130;21.218;2023-07-31T11:40:44;100039.00;;;24.08;47.06
78990;BME280;68390;52.130;21.218;2023-07-31T11:43:10;100035.38;;;24.12;47.53
78990;BME280;68390;52.130;21.218;2023-07-31T11:45:37;100033.09;;;24.09;45.38
78990;BME280;68390;52.130;21.218;2023-07-31T11:48:03;100022.91;;;23.98;43.83
78990;BME280;68390;52.130;21.218;2023-07-31T11:50:33;100027.31;;;23.89;45.50
78990;BME280;68390;52.130;21.218;2023-07-31T11:53:00;100028.31;;;23.78;45.23
78990;BME280;68390;52.130;21.218;2023-07-31T11:55:26;100020.66;;;23.68;45.54
78990;BME280;68390;52.130;21.218;2023-07-31T11:57:55;100020.38;;;23.65;46.71
78990;BME280;68390;52.130;21.218;2023-07-31T12:00:21;100019.16;;;23.56;46.37
78990;BME280;68390;52.130;21.218;2023-07-31T12:02:47;100031.50;;;23.60;45.99
78990;BME280;68390;52.130;21.218;2023-07-31T12:05:13;100025.03;;;23.54;46.71
78990;BME280;68390;52.130;21.218;2023-07-31T12:07:46;100022.00;;;23.61;46.07
78990;BME280;68390;52.130;21.218;2023-07-31T12:10:23;100027.34;;;23.62;47.02
78990;BME280;68390;52.130;21.218;2023-07-31T12:12:56;100020.03;;;23.61;45.63
78990;BME280;68390;52.130;21.218;2023-07-31T12:15:22;100017.50;;;23.60;47.38
78990;BME280;68390;52.130;21.218;2023-07-31T12:17:53;100011.97;;;23.65;46.18
78990;BME280;68390;52.130;21.218;2023-07-31T12:20:20;100023.16;;;23.65;46.41
78990;BME280;68390;52.130;21.218;2023-07-31T12:22:45;100012.53;;;23.67;47.11
78990;BME280;68390;52.130;21.218;2023-07-31T12:25:15;100008.94;;;23.71;46.39
78990;BME280;68390;52.130;21.218;2023-07-31T12:27:44;100005.00;;;23.72;44.70
78990;BME280;68390;52.130;21.218;2023-07-31T12:30:33;100004.22;;;23.77;45.29
78990;BME280;68390;52.130;21.218;2023-07-31T13:22:08;99965.22;;;23.49;43.08
78990;BME280;68390;52.130;21.218;2023-07-31T13:24:35;99968.16;;;23.59;42.58
78990;BME280;68390;52.130;21.218;2023-07-31T13:27:00;99957.00;;;23.64;40.78
78990;BME280;68390;52.130;21.218;2023-07-31T13:29:26;99956.94;;;23.59;41.57
78990;BME280;68390;52.130;21.218;2023-07-31T13:31:52;99957.75;;;23.54;42.42
78990;BME280;68390;52.130;21.218;2023-07-31T13:34:18;99954.75;;;23.39;41.84
78990;BME280;68390;52.130;21.218;2023-07-31T13:36:43;99953.31;;;23.36;41.47
78990;BME280;68390;52.130;21.218;2023-07-31T13:39:09;99949.47;;;23.42;41.68
78990;BME280;68390;52.130;21.218;2023-07-31T13:41:34;99941.81;;;23.60;41.51
78990;BME280;68390;52.130;21.218;2023-07-31T13:44:00;99933.19;;;23.66;40.52
78990;BME280;68390;52.130;21.218;2023-07-31T13:46:25;99953.78;;;23.82;44.01
78990;BME280;68390;52.130;21.218;2023-07-31T13:48:51;99949.88;;;23.83;40.93
78990;BME280;68390;52.130;21.218;2023-07-31T13:51:21;99949.88;;;23.83;42.21
78990;BME280;68390;52.130;21.218;2023-07-31T13:53:46;99934.38;;;23.75;41.16
78990;BME280;68390;52.130;21.218;2023-07-31T13:56:12;99942.53;;;23.77;42.58